Time;durP1;ratioP1;P1;durP2;ratioP2;P2;SDS_P1;SDS_P2;PMS_P1;PMS_P2;Temp;Humidity;BMP_temperature;BMP_pressure;BME280_temperature;BME280_humidity;BME280_pressure;Samples;Min_cycle;Max_cycle;Signal;HPM_P1;HPM_P2
2022/03/27 00:01:34;;;;;;;5.97;2.67;;;7.40;99.90;;;;;;5047214;28;20094;-85
2022/03/27 00:03:59;;;;;;;7.28;2.53;;;7.40;99.90;;;;;;5066746;28;20052;-85
2022/03/27 00:06:25;;;;;;;6.15;2.63;;;7.40;99.90;;;;;;5061500;28;20411;-86
2022/03/27 00:08:51;;;;;;;6.13;3.15;;;7.40;99.90;;;;;;5062070;28;20076;-85
2022/03/27 00:11:27;;;;;;;3.42;2.63;;;7.40;99.90;;;;;;5093548;28;20076;-86
2022/03/27 00:13:59;;;;;;;7.40;3.55;;;7.40;99.90;;;;;;5060504;28;20048;-85
2022/03/27 00:16:25;;;;;;;3.47;3.17;;;7.50;99.90;;;;;;5066319;28;20040;-86
2022/03/27 00:18:52;;;;;;;3.58;2.53;;;7.40;99.90;;;;;;5053019;28;20040;-85
2022/03/27 00:21:19;;;;;;;3.17;2.50;;;7.50;99.90;;;;;;5061148;28;20112;-85
2022/03/27 00:23:44;;;;;;;6.63;3.13;;;7.50;99.90;;;;;;5059116;28;20072;-85
2022/03/27 00:26:10;;;;;;;8.15;2.88;;;7.50;99.90;;;;;;5062080;28;20040;-85
2022/03/27 00:28:36;;;;;;;7.72;3.50;;;7.50;99.90;;;;;;5060220;28;20052;-84
2022/03/27 00:31:04;;;;;;;8.98;3.40;;;7.50;99.90;;;;;;5066408;28;20052;-85
2022/03/27 00:33:34;;;;;;;8.07;3.50;;;7.50;99.90;;;;;;5064056;28;20045;-87
2022/03/27 00:36:00;;;;;;;5.82;3.50;;;6.40;99.90;;;;;;5060120;28;20063;-86
2022/03/27 00:38:26;;;;;;;5.60;3.00;;;7.50;99.90;;;;;;5052494;28;20040;-85
2022/03/27 00:40:56;;;;;;;7.43;3.15;;;7.50;99.90;;;;;;5061202;28;20382;-85
2022/03/27 00:43:27;;;;;;;11.05;3.80;;;7.50;99.90;;;;;;5038242;28;20497;-84
2022/03/27 00:45:53;;;;;;;8.25;3.72;;;7.50;99.90;;;;;;5062508;28;20047;-87
2022/03/27 00:48:21;;;;;;;11.40;4.32;;;7.50;99.90;;;;;;5061575;28;20044;-85
2022/03/27 00:50:48;;;;;;;9.77;4.38;;;7.50;99.90;;;;;;5081873;28;20074;-86
2022/03/27 00:53:14;;;;;;;6.80;3.58;;;7.50;99.90;;;;;;5066868;28;20048;-86
2022/03/27 00:55:40;;;;;;;6.88;3.90;;;7.50;99.90;;;;;;5064734;28;20039;-85
2022/03/27 00:58:06;;;;;;;10.00;3.97;;;7.90;99.90;;;;;;5057353;28;20389;-87
2022/03/27 01:00:37;;;;;;;9.32;4.13;;;7.50;99.90;;;;;;5066307;28;20045;-88
2022/03/27 01:03:08;;;;;;;7.47;4.63;;;7.50;99.90;;;;;;5045229;28;20056;-85
2022/03/27 01:05:34;;;;;;;9.68;4.38;;;7.50;99.90;;;;;;5066899;28;20040;-85
2022/03/27 01:08:06;;;;;;;12.10;4.70;;;8.50;99.90;;;;;;5045161;28;20032;-84
2022/03/27 01:10:32;;;;;;;12.25;5.40;;;7.50;99.90;;;;;;5064635;28;20109;-85
2022/03/27 01:13:11;;;;;;;11.05;4.05;;;7.50;99.90;;;;;;5057803;28;20048;-85
2022/03/27 01:15:53;;;;;;;12.20;4.63;;;7.50;99.90;;;;;;5058710;28;20043;-84
2022/03/27 01:18:19;;;;;;;13.00;4.05;;;7.60;99.90;;;;;;5054669;28;20045;-84
2022/03/27 01:20:45;;;;;;;11.38;4.57;;;7.50;99.90;;;;;;5067497;28;20439;-85
2022/03/27 01:23:13;;;;;;;11.25;4.15;;;7.60;99.90;;;;;;5045544;28;20048;-84
2022/03/27 01:25:41;;;;;;;10.82;4.45;;;7.60;99.90;;;;;;5041258;28;20047;-84
2022/03/27 01:28:09;;;;;;;10.88;4.28;;;7.60;99.90;;;;;;5059044;28;20116;-85
2022/03/27 01:30:35;;;;;;;12.60;4.35;;;7.60;99.90;;;;;;5059072;28;20043;-86
2022/03/27 01:33:02;;;;;;;11.93;4.53;;;7.50;99.90;;;;;;5040073;28;20496;-86
2022/03/27 01:35:28;;;;;;;13.27;4.75;;;7.50;99.90;;;;;;5063845;28;20495;-83
2022/03/27 01:37:54;;;;;;;11.77;4.45;;;7.50;99.90;;;;;;5062184;28;20606;-86
2022/03/27 01:40:20;;;;;;;8.40;4.30;;;7.40;99.90;;;;;;5061937;28;20123;-84
2022/03/27 01:42:46;;;;;;;7.85;4.13;;;7.40;99.90;;;;;;5065032;28;20045;-85
2022/03/27 01:45:12;;;;;;;15.85;5.28;;;7.40;99.90;;;;;;5058463;28;20036;-84
2022/03/27 01:47:39;;;;;;;11.88;5.00;;;7.40;99.90;;;;;;5053809;28;20045;-83
2022/03/27 01:50:06;;;;;;;15.85;4.55;;;7.40;99.90;;;;;;5064378;28;20045;-82
2022/03/27 01:52:32;;;;;;;9.30;4.45;;;7.30;99.90;;;;;;5064102;28;20041;-83
2022/03/27 01:54:58;;;;;;;13.13;4.13;;;7.30;99.90;;;;;;5055109;28;20053;-84
2022/03/27 01:57:24;;;;;;;11.85;4.40;;;7.30;99.90;;;;;;5059655;28;20037;-86
2022/03/27 01:59:50;;;;;;;10.02;4.00;;;7.30;99.90;;;;;;5067193;28;20119;-84
2022/03/27 02:02:23;;;;;;;12.98;4.20;;;7.30;99.90;;;;;;5058481;28;20110;-83
2022/03/27 02:04:55;;;;;;;10.63;4.70;;;7.30;99.90;;;;;;5082343;28;20496;-84
2022/03/27 02:07:23;;;;;;;10.70;4.68;;;7.30;99.90;;;;;;5065951;28;20377;-86
2022/03/27 02:09:49;;;;;;;11.35;4.60;;;7.40;99.90;;;;;;5070062;28;20106;-86
2022/03/27 02:12:15;;;;;;;9.20;4.22;;;7.40;99.90;;;;;;5066118;28;20472;-85
2022/03/27 02:14:41;;;;;;;10.55;4.30;;;7.40;99.90;;;;;;5050542;28;20131;-84
2022/03/27 02:17:08;;;;;;;11.75;4.15;;;7.40;99.90;;;;;;5047388;28;20178;-85
2022/03/27 02:19:34;;;;;;;12.90;4.88;;;7.50;99.90;;;;;;5070514;28;20078;-85
2022/03/27 02:22:00;;;;;;;10.35;4.32;;;7.50;99.90;;;;;;5064657;28;20041;-86
2022/03/27 02:24:26;;;;;;;13.73;4.80;;;7.50;99.90;;;;;;5065683;28;20051;-85
2022/03/27 02:26:51;;;;;;;10.38;5.32;;;8.80;99.90;;;;;;5066202;28;20036;-86
2022/03/27 02:29:17;;;;;;;13.77;5.32;;;7.50;99.90;;;;;;5063170;28;20052;-84
2022/03/27 02:31:45;;;;;;;13.73;6.05;;;7.40;99.90;;;;;;5060228;28;20044;-85
2022/03/27 02:34:11;;;;;;;12.75;5.32;;;7.40;99.90;;;;;;5049100;28;20052;-84
2022/03/27 02:36:37;;;;;;;21.77;6.25;;;7.30;99.90;;;;;;5061633;28;20041;-86
2022/03/27 02:39:03;;;;;;;13.63;5.63;;;7.20;99.90;;;;;;5069422;28;20388;-87
2022/03/27 02:41:29;;;;;;;14.40;5.55;;;7.20;99.90;;;;;;5067923;28;20045;-85
2022/03/27 02:43:54;;;;;;;14.82;5.30;;;8.20;99.90;;;;;;5065537;28;20052;-85
2022/03/27 02:46:20;;;;;;;14.68;5.30;;;7.10;99.90;;;;;;5066126;28;20052;-85
2022/03/27 02:48:46;;;;;;;15.32;5.47;;;7.20;99.90;;;;;;5066714;28;20051;-85
2022/03/27 02:51:12;;;;;;;20.02;5.88;;;7.10;99.90;;;;;;5059734;28;20083;-86
2022/03/27 02:53:37;;;;;;;20.35;6.35;;;7.10;99.90;;;;;;5070253;28;20043;-85
2022/03/27 02:56:04;;;;;;;20.23;6.03;;;7.10;99.90;;;;;;5060505;28;20392;-85
2022/03/27 02:58:30;;;;;;;13.55;5.85;;;7.10;99.90;;;;;;5058143;28;20032;-86
2022/03/27 03:00:56;;;;;;;19.95;7.35;;;7.00;99.90;;;;;;5060779;28;20536;-85
2022/03/27 03:03:22;;;;;;;13.85;5.70;;;7.00;99.90;;;;;;5058043;28;20040;-86
2022/03/27 03:05:48;;;;;;;14.85;5.07;;;6.90;99.90;;;;;;5055474;28;20036;-84
2022/03/27 03:08:17;;;;;;;15.95;6.40;;;6.90;99.90;;;;;;5060928;28;20033;-85
2022/03/27 03:10:44;;;;;;;16.52;5.22;;;6.90;99.90;;;;;;5048446;28;20048;-86
2022/03/27 03:13:10;;;;;;;20.95;5.55;;;6.90;99.90;;;;;;5089718;28;20048;-86
2022/03/27 03:15:37;;;;;;;19.50;6.03;;;7.00;99.90;;;;;;5044545;28;20083;-86
2022/03/27 03:18:04;;;;;;;13.88;5.75;;;6.90;99.90;;;;;;5058042;28;20606;-87
2022/03/27 03:20:30;;;;;;;12.70;5.13;;;6.90;99.90;;;;;;5058220;28;20518;-84
2022/03/27 03:22:55;;;;;;;15.30;5.18;;;6.90;99.90;;;;;;5063169;28;20591;-85
2022/03/27 03:25:21;;;;;;;11.48;5.07;;;6.90;99.90;;;;;;5053995;28;20120;-85
2022/03/27 03:27:47;;;;;;;13.95;4.95;;;6.90;99.90;;;;;;5055173;28;20036;-85
2022/03/27 03:30:12;;;;;;;11.57;4.82;;;6.90;99.90;;;;;;5057908;28;20382;-84
2022/03/27 03:32:38;;;;;;;7.68;4.40;;;6.80;99.90;;;;;;5043657;28;20986;-86
2022/03/27 03:35:05;;;;;;;12.32;6.43;;;6.90;99.90;;;;;;5066501;28;20136;-86
2022/03/27 03:37:30;;;;;;;11.07;4.28;;;6.90;99.90;;;;;;5064179;28;20046;-86
2022/03/27 03:39:56;;;;;;;16.27;4.63;;;6.90;99.90;;;;;;5064096;28;20120;-84
2022/03/27 03:42:22;;;;;;;9.68;3.88;;;6.80;99.90;;;;;;5063852;28;20032;-85
2022/03/27 03:44:47;;;;;;;13.27;4.10;;;6.80;99.90;;;;;;5064416;28;20351;-85
2022/03/27 03:47:13;;;;;;;14.80;4.30;;;7.50;99.90;;;;;;5061275;28;20098;-86
2022/03/27 03:49:39;;;;;;;11.18;4.00;;;6.90;99.90;;;;;;5044321;28;20473;-85
2022/03/27 03:52:06;;;;;;;15.32;4.95;;;6.90;99.90;;;;;;5064702;28;20037;-85
2022/03/27 03:54:34;;;;;;;9.13;4.25;;;6.80;99.90;;;;;;5062326;28;20040;-85
2022/03/27 03:57:00;;;;;;;10.48;4.05;;;6.80;99.90;;;;;;5055220;28;20102;-85
2022/03/27 03:59:26;;;;;;;7.28;3.63;;;6.80;99.90;;;;;;5062643;28;20454;-85
2022/03/27 04:01:51;;;;;;;12.10;3.63;;;6.80;99.90;;;;;;5063463;28;20075;-86
2022/03/27 04:04:17;;;;;;;12.55;4.00;;;6.80;99.90;;;;;;5068484;28;20072;-85
2022/03/27 04:06:44;;;;;;;10.95;4.50;;;6.70;99.90;;;;;;5065860;28;20098;-85
2022/03/27 04:09:10;;;;;;;11.18;3.63;;;7.80;99.90;;;;;;5059291;28;20044;-85
2022/03/27 04:11:35;;;;;;;13.13;4.10;;;6.80;99.90;;;;;;5062759;28;20047;-84
2022/03/27 04:14:01;;;;;;;10.05;3.95;;;6.80;99.90;;;;;;5043897;28;20541;-85
2022/03/27 04:16:28;;;;;;;15.32;4.13;;;6.70;99.90;;;;;;5066699;28;20134;-85
2022/03/27 04:18:53;;;;;;;11.38;4.35;;;7.70;99.90;;;;;;5064958;28;20045;-85
2022/03/27 04:21:19;;;;;;;16.40;4.00;;;6.70;99.90;;;;;;5059697;28;20044;-86
2022/03/27 04:23:45;;;;;;;12.68;3.70;;;6.60;99.90;;;;;;5050798;28;20443;-83
2022/03/27 04:26:11;;;;;;;14.35;4.10;;;6.10;99.90;;;;;;5058370;28;20043;-85
2022/03/27 04:28:37;;;;;;;12.02;4.10;;;6.50;99.90;;;;;;5057603;28;20111;-85
2022/03/27 04:31:03;;;;;;;17.38;4.45;;;6.50;99.90;;;;;;5062304;28;20661;-86
2022/03/27 04:33:29;;;;;;;16.15;4.43;;;6.50;99.90;;;;;;5065172;28;20124;-86
2022/03/27 04:35:54;;;;;;;10.35;3.75;;;6.50;99.90;;;;;;5063848;28;20063;-84
2022/03/27 04:38:20;;;;;;;11.93;4.43;;;6.40;99.90;;;;;;5043005;28;20118;-86
2022/03/27 04:40:46;;;;;;;10.60;4.00;;;6.40;99.90;;;;;;5063751;28;20041;-85
2022/03/27 04:43:12;;;;;;;11.20;3.72;;;6.40;99.90;;;;;;5061032;28;20068;-86
2022/03/27 04:45:38;;;;;;;11.93;3.60;;;6.40;99.90;;;;;;5058868;28;20460;-86
2022/03/27 04:48:04;;;;;;;12.70;4.28;;;6.30;99.90;;;;;;5041322;28;20076;-86
2022/03/27 04:50:29;;;;;;;10.90;3.90;;;6.30;99.90;;;;;;5063538;28;20040;-87
2022/03/27 04:52:55;;;;;;;11.13;4.15;;;7.20;99.90;;;;;;5063953;28;20366;-83
2022/03/27 04:55:21;;;;;;;8.70;3.63;;;6.30;99.90;;;;;;5092067;28;20110;-85
2022/03/27 04:57:48;;;;;;;10.20;4.07;;;6.30;99.90;;;;;;5058629;28;20485;-85
2022/03/27 05:00:14;;;;;;;12.63;3.03;;;6.30;99.90;;;;;;5066837;28;20507;-85
2022/03/27 05:02:41;;;;;;;8.75;3.42;;;6.30;99.90;;;;;;5063492;28;20505;-86
2022/03/27 05:05:10;;;;;;;11.07;2.88;;;6.20;99.90;;;;;;5055131;28;20503;-85
2022/03/27 05:07:37;;;;;;;14.60;3.92;;;6.20;99.90;;;;;;5055401;28;20040;-85
2022/03/27 05:10:06;;;;;;;13.65;3.70;;;6.20;99.90;;;;;;5045139;28;20041;-86
2022/03/27 05:12:32;;;;;;;9.48;3.08;;;6.20;99.90;;;;;;5059967;28;20040;-86
2022/03/27 05:14:58;;;;;;;10.18;3.72;;;6.20;99.90;;;;;;5066070;28;20051;-85
2022/03/27 05:17:23;;;;;;;10.70;4.07;;;6.10;99.90;;;;;;5056649;28;20029;-86
2022/03/27 05:19:49;;;;;;;12.25;3.47;;;6.10;99.90;;;;;;5065063;28;20082;-86
2022/03/27 05:22:15;;;;;;;11.73;3.40;;;6.10;99.90;;;;;;5054335;28;20040;-86
2022/03/27 05:24:41;;;;;;;14.10;3.58;;;6.10;99.90;;;;;;5053503;28;20492;-86
2022/03/27 05:27:06;;;;;;;11.25;3.10;;;7.60;99.90;;;;;;5053100;28;20033;-83
2022/03/27 05:29:32;;;;;;;13.80;3.75;;;7.10;99.90;;;;;;5057217;28;20071;-85
2022/03/27 05:31:58;;;;;;;12.23;3.90;;;6.00;99.90;;;;;;5063852;28;20033;-84
2022/03/27 05:34:24;;;;;;;12.20;3.45;;;5.90;99.90;;;;;;5072853;28;20477;-85
2022/03/27 05:36:50;;;;;;;11.55;4.10;;;6.00;99.90;;;;;;5053936;28;20043;-85
2022/03/27 05:39:17;;;;;;;7.90;3.78;;;5.90;99.90;;;;;;5070730;28;20040;-85
2022/03/27 05:41:43;;;;;;;7.45;3.13;;;5.90;99.90;;;;;;5054309;28;20194;-85
2022/03/27 05:44:09;;;;;;;12.40;3.88;;;5.90;99.90;;;;;;5060824;28;20040;-83
2022/03/27 05:46:34;;;;;;;10.35;3.70;;;5.90;99.90;;;;;;5057846;28;20043;-82
2022/03/27 05:49:00;;;;;;;12.48;3.40;;;5.80;99.90;;;;;;5067210;28;20047;-83
2022/03/27 05:51:26;;;;;;;7.97;3.42;;;5.80;99.90;;;;;;5076377;28;20090;-83
2022/03/27 05:53:51;;;;;;;11.63;4.15;;;5.80;99.90;;;;;;5071969;28;20055;-83
2022/03/27 05:56:17;;;;;;;12.95;4.45;;;5.80;99.90;;;;;;5060245;28;20029;-82
2022/03/27 05:58:43;;;;;;;10.23;3.63;;;5.80;99.90;;;;;;5067087;28;20056;-82
2022/03/27 06:01:09;;;;;;;12.82;3.97;;;5.80;99.90;;;;;;5069911;28;20072;-82
2022/03/27 06:03:34;;;;;;;11.82;3.85;;;5.80;99.90;;;;;;5064223;28;20522;-82
2022/03/27 06:06:00;;;;;;;11.60;3.25;;;5.80;99.90;;;;;;5066818;28;20044;-82
2022/03/27 06:08:25;;;;;;;10.70;3.35;;;5.70;99.90;;;;;;5060323;28;20036;-82
2022/03/27 06:10:51;;;;;;;13.55;3.10;;;5.70;99.90;;;;;;5069966;28;20063;-82
2022/03/27 06:13:17;;;;;;;15.15;4.10;;;5.70;99.90;;;;;;5069499;28;20058;-82
2022/03/27 06:15:43;;;;;;;11.52;3.25;;;5.70;99.90;;;;;;5069452;28;20068;-81
2022/03/27 06:18:10;;;;;;;11.65;3.17;;;5.60;99.90;;;;;;5054551;28;21661;-81
2022/03/27 06:20:37;;;;;;;14.60;3.88;;;5.70;99.90;;;;;;5053437;28;20045;-82
2022/03/27 06:23:03;;;;;;;14.73;3.83;;;5.60;99.90;;;;;;5046346;28;20091;-82
2022/03/27 06:25:30;;;;;;;13.32;3.72;;;5.70;99.90;;;;;;5067670;28;20048;-83
2022/03/27 06:27:57;;;;;;;15.60;4.18;;;7.20;99.90;;;;;;5069379;28;20052;-83
2022/03/27 06:30:24;;;;;;;13.45;3.40;;;5.80;99.90;;;;;;5069654;28;20135;-82
2022/03/27 06:32:51;;;;;;;18.00;4.28;;;5.70;99.90;;;;;;5057639;28;20052;-82
2022/03/27 06:35:19;;;;;;;14.18;3.47;;;5.70;99.90;;;;;;5064649;28;20076;-82
2022/03/27 06:37:45;;;;;;;16.80;3.30;;;5.70;99.90;;;;;;5057321;28;20381;-83
2022/03/27 06:40:13;;;;;;;20.95;4.07;;;5.80;99.90;;;;;;5066947;28;20043;-84
2022/03/27 06:42:39;;;;;;;15.05;4.78;;;5.80;99.90;;;;;;5069029;28;20086;-83
2022/03/27 06:45:06;;;;;;;23.92;4.40;;;5.80;99.90;;;;;;5055902;28;20037;-85
2022/03/27 06:47:33;;;;;;;23.73;4.78;;;5.90;99.90;;;;;;5061875;28;20135;-86
2022/03/27 06:50:01;;;;;;;20.02;4.07;;;5.90;99.90;;;;;;5068621;28;20121;-89
2022/03/27 06:52:27;;;;;;;25.98;4.90;;;5.90;99.90;;;;;;4371568;28;10000931;-86
2022/03/27 06:54:54;;;;;;;28.00;5.68;;;6.00;99.90;;;;;;5072946;28;20227;-86
2022/03/27 06:57:21;;;;;;;33.05;6.10;;;6.00;99.90;;;;;;5067725;28;20505;-87
2022/03/27 07:05:16;;;;;;;;;;;6.00;99.90;;;;;;5060692;28;20109;-86
2022/03/27 07:07:45;;;;;;;33.38;5.22;;;6.00;99.90;;;;;;5068655;28;19928;-83
2022/03/27 07:10:11;;;;;;;26.35;5.00;;;6.00;99.90;;;;;;5065290;28;20072;-82
2022/03/27 07:12:42;;;;;;;37.67;6.68;;;6.00;99.90;;;;;;5061649;28;20072;-80
2022/03/27 07:15:09;;;;;;;29.65;5.43;;;5.40;99.90;;;;;;5063918;28;20661;-84
2022/03/27 07:17:43;;;;;;;29.10;5.78;;;6.10;99.90;;;;;;5067822;28;20063;-84
2022/03/27 07:20:09;;;;;;;36.55;6.28;;;6.10;99.90;;;;;;5070240;28;20403;-82
2022/03/27 07:22:34;;;;;;;32.60;5.75;;;5.10;99.90;;;;;;5034147;28;20041;-84
2022/03/27 07:25:00;;;;;;;32.90;5.93;;;6.20;99.90;;;;;;5064258;28;20443;-84
2022/03/27 07:27:25;;;;;;;36.42;7.57;;;6.20;99.90;;;;;;5068169;28;20041;-84
2022/03/27 07:29:51;;;;;;;34.83;8.02;;;6.20;99.90;;;;;;5067614;28;20048;-86
2022/03/27 07:32:17;;;;;;;33.08;6.75;;;6.30;99.90;;;;;;5066476;28;20102;-85
2022/03/27 07:34:42;;;;;;;47.05;6.95;;;6.40;99.90;;;;;;5047604;28;20052;-84
2022/03/27 07:37:08;;;;;;;40.10;9.60;;;6.40;99.90;;;;;;5065611;28;20101;-82
2022/03/27 07:39:34;;;;;;;45.35;9.07;;;6.40;99.90;;;;;;5064983;28;20033;-85
2022/03/27 07:42:00;;;;;;;51.53;7.97;;;6.50;99.90;;;;;;5049351;28;20041;-83
2022/03/27 07:44:26;;;;;;;34.50;7.10;;;6.60;99.90;;;;;;5049088;28;20040;-86
2022/03/27 07:46:56;;;;;;;34.45;6.68;;;6.60;99.90;;;;;;5067217;28;20037;-84
2022/03/27 07:49:23;;;;;;;46.78;7.68;;;6.70;99.90;;;;;;5060632;28;20074;-85
2022/03/27 07:51:49;;;;;;;45.17;7.63;;;6.70;99.90;;;;;;5054333;28;20529;-84
2022/03/27 07:54:14;;;;;;;48.00;9.25;;;6.70;99.90;;;;;;5065356;28;20082;-85
2022/03/27 07:56:40;;;;;;;45.30;8.05;;;6.80;99.90;;;;;;5066106;28;20067;-83
2022/03/27 07:59:06;;;;;;;52.22;9.85;;;6.60;99.90;;;;;;5066726;28;20048;-84
2022/03/27 08:01:32;;;;;;;48.42;8.35;;;7.00;99.90;;;;;;5067384;28;20041;-84
2022/03/27 08:03:58;;;;;;;40.53;7.72;;;6.90;99.90;;;;;;5065879;28;20124;-84
2022/03/27 08:06:24;;;;;;;59.30;9.35;;;7.00;99.90;;;;;;5057613;28;20612;-84
2022/03/27 08:08:50;;;;;;;51.97;8.50;;;7.00;99.90;;;;;;5067645;28;20153;-84
2022/03/27 08:11:16;;;;;;;40.20;7.72;;;7.10;99.90;;;;;;5049952;28;20052;-82
2022/03/27 08:13:43;;;;;;;44.25;8.63;;;7.10;99.90;;;;;;5065381;28;20040;-82
2022/03/27 08:16:08;;;;;;;48.85;9.30;;;7.10;99.90;;;;;;5065443;28;20115;-85
2022/03/27 08:18:34;;;;;;;42.92;8.80;;;7.20;99.90;;;;;;5066214;28;20568;-86
2022/03/27 08:21:00;;;;;;;52.50;9.45;;;7.20;99.90;;;;;;5069511;28;20043;-86
2022/03/27 08:23:26;;;;;;;40.80;8.70;;;7.20;99.90;;;;;;5066653;28;20452;-82
2022/03/27 08:28:36;;;;;;;43.80;8.20;;;7.80;99.90;;;;;;5065970;28;20079;-84
2022/03/27 08:31:02;;;;;;;46.50;9.05;;;7.40;99.90;;;;;;5052505;28;20064;-83
2022/03/27 08:33:27;;;;;;;43.50;8.88;;;7.40;99.90;;;;;;5065991;28;20082;-83
2022/03/27 08:35:54;;;;;;;47.33;8.57;;;7.50;99.90;;;;;;5068922;28;20048;-83
2022/03/27 08:38:20;;;;;;;44.47;9.10;;;7.50;99.90;;;;;;5067503;28;20040;-86
2022/03/27 08:40:47;;;;;;;47.40;8.85;;;7.60;99.90;;;;;;5064036;28;20118;-82
2022/03/27 08:43:15;;;;;;;43.97;9.30;;;7.60;99.90;;;;;;5064619;28;20110;-80
2022/03/27 08:45:42;;;;;;;52.42;9.40;;;7.60;99.90;;;;;;5069957;28;20075;-82
2022/03/27 08:48:08;;;;;;;30.55;7.65;;;7.70;99.90;;;;;;5075135;28;20044;-79
2022/03/27 08:50:42;;;;;;;35.65;8.68;;;7.80;99.90;;;;;;5074506;28;20040;-81
2022/03/27 08:53:11;;;;;;;37.03;7.38;;;7.90;99.90;;;;;;5068258;28;20051;-80
2022/03/27 08:55:58;;;;;;;38.17;8.05;;;7.90;99.90;;;;;;5068135;28;20052;-80
2022/03/27 08:58:32;;;;;;;42.92;8.90;;;8.00;99.90;;;;;;5067414;28;20048;-81
2022/03/27 09:00:58;;;;;;;48.35;10.95;;;8.00;99.90;;;;;;5066974;28;20613;-80
2022/03/27 09:03:24;;;;;;;32.47;6.50;;;8.10;99.90;;;;;;5066110;28;20047;-81
2022/03/27 09:05:49;;;;;;;38.13;7.45;;;8.10;99.90;;;;;;5068279;28;20523;-80
2022/03/27 09:08:18;;;;;;;52.72;8.98;;;8.10;99.90;;;;;;5068025;28;20048;-85
2022/03/27 09:10:44;;;;;;;39.00;7.45;;;8.10;99.90;;;;;;5066468;28;20048;-79
2022/03/27 09:13:17;;;;;;;46.25;10.27;;;8.20;99.90;;;;;;5068783;28;20404;-80
2022/03/27 09:15:43;;;;;;;49.77;7.77;;;8.20;99.90;;;;;;5068979;28;20044;-82
2022/03/27 09:18:11;;;;;;;45.78;8.45;;;8.30;99.90;;;;;;5067419;28;20044;-80
2022/03/27 09:20:47;;;;;;;43.30;8.68;;;8.30;99.90;;;;;;5068137;28;20048;-82
2022/03/27 09:23:24;;;;;;;38.10;7.43;;;8.40;99.90;;;;;;5061354;28;20543;-81
2022/03/27 09:25:57;;;;;;;39.08;7.28;;;8.40;99.90;;;;;;5060691;28;20048;-81
2022/03/27 09:28:27;;;;;;;35.00;7.55;;;8.60;99.90;;;;;;5077831;28;20135;-81
2022/03/27 09:30:53;;;;;;;37.50;8.23;;;8.70;99.90;;;;;;5067203;28;20049;-81
2022/03/27 09:33:46;;;;;;;39.17;9.50;;;8.70;99.90;;;;;;5067375;28;20442;-84
2022/03/27 09:36:20;;;;;;;47.08;7.82;;;8.80;99.90;;;;;;5073328;28;20515;-82
2022/03/27 09:39:16;;;;;;;34.75;7.97;;;8.90;99.90;;;;;;5048082;28;20048;-79
2022/03/27 09:41:54;;;;;;;41.40;7.40;;;8.90;99.90;;;;;;5066854;28;20052;-79
2022/03/27 09:44:41;;;;;;;39.03;7.25;;;9.00;99.90;;;;;;5067911;28;20408;-80
2022/03/27 09:47:11;;;;;;;41.25;7.18;;;9.10;99.90;;;;;;5062861;28;20053;-80
2022/03/27 09:49:39;;;;;;;31.10;6.63;;;9.10;99.90;;;;;;5060521;28;20055;-81
2022/03/27 09:52:15;;;;;;;42.42;7.95;;;9.10;99.90;;;;;;5069883;28;20067;-81
2022/03/27 09:54:57;;;;;;;43.28;8.73;;;9.20;99.90;;;;;;5046192;28;20052;-81
2022/03/27 09:57:33;;;;;;;40.08;6.97;;;9.20;99.90;;;;;;5066003;28;20484;-86
2022/03/27 10:00:11;;;;;;;29.73;7.72;;;9.30;99.90;;;;;;5065879;28;20048;-80
2022/03/27 10:02:38;;;;;;;30.10;6.18;;;9.30;99.90;;;;;;5050081;28;20098;-80
2022/03/27 10:05:05;;;;;;;31.20;6.82;;;9.40;99.90;;;;;;5074166;28;20444;-80
2022/03/27 10:07:41;;;;;;;35.35;6.53;;;9.50;99.90;;;;;;5066769;28;20106;-83
2022/03/27 10:10:13;;;;;;;38.42;6.90;;;9.50;99.90;;;;;;5067394;28;20095;-82
2022/03/27 10:12:42;;;;;;;33.50;7.20;;;9.60;99.90;;;;;;5058895;28;20488;-79
2022/03/27 10:15:12;;;;;;;33.90;8.25;;;9.70;99.90;;;;;;5066693;28;20511;-80
2022/03/27 10:17:39;;;;;;;31.60;6.47;;;9.70;99.90;;;;;;5049786;28;20629;-79
2022/03/27 10:20:08;;;;;;;33.53;7.13;;;9.70;99.90;;;;;;5067903;28;20048;-79
2022/03/27 10:22:39;;;;;;;35.00;7.10;;;9.90;99.90;;;;;;5072059;28;20055;-83
2022/03/27 10:25:05;;;;;;;27.27;5.80;;;9.90;99.90;;;;;;5071517;28;20161;-81
2022/03/27 10:27:33;;;;;;;36.28;6.85;;;10.00;99.90;;;;;;5072214;28;20048;-81
2022/03/27 10:30:01;;;;;;;26.42;5.88;;;10.10;99.90;;;;;;5053119;28;20044;-80
2022/03/27 10:32:27;;;;;;;30.83;6.80;;;10.20;99.90;;;;;;5070150;28;20059;-81
2022/03/27 10:35:26;;;;;;;24.27;5.93;;;10.30;99.90;;;;;;5070127;28;20049;-81
2022/03/27 10:38:13;;;;;;;35.58;5.93;;;10.50;99.90;;;;;;5064846;28;20492;-82
2022/03/27 10:40:42;;;;;;;29.42;6.10;;;10.60;99.90;;;;;;5073968;28;20078;-81
2022/03/27 10:43:22;;;;;;;39.92;6.85;;;10.70;99.90;;;;;;5076430;28;20084;-82
2022/03/27 10:46:37;;;;;;;34.00;6.25;;;10.70;99.90;;;;;;5055324;28;20109;-81
2022/03/27 10:49:11;;;;;;;42.23;8.20;;;10.80;99.90;;;;;;5058611;28;20527;-81
2022/03/27 10:51:39;;;;;;;31.70;6.20;;;10.90;99.90;;;;;;5070244;28;20900;-80
2022/03/27 10:54:18;;;;;;;24.25;5.65;;;11.10;99.90;;;;;;5071857;28;20090;-80
2022/03/27 10:56:46;;;;;;;32.08;7.00;;;11.20;99.90;;;;;;5061085;28;20407;-81
2022/03/27 10:59:18;;;;;;;33.72;12.63;;;11.00;99.90;;;;;;5069611;28;20047;-83
2022/03/27 11:01:53;;;;;;;29.13;6.90;;;11.50;99.90;;;;;;5062556;28;20117;-81
2022/03/27 11:04:25;;;;;;;23.23;6.50;;;11.50;99.90;;;;;;5070945;28;20041;-81
2022/03/27 11:06:52;;;;;;;30.58;6.47;;;11.60;99.90;;;;;;5061811;28;20051;-82
2022/03/27 11:09:35;;;;;;;25.88;5.45;;;11.70;99.90;;;;;;5051879;28;20051;-80
2022/03/27 11:12:24;;;;;;;27.38;5.32;;;12.20;99.90;;;;;;5063115;28;20394;-82
2022/03/27 11:14:52;;;;;;;25.20;5.10;;;11.90;99.90;;;;;;5065204;28;20048;-80
2022/03/27 11:17:40;;;;;;;25.30;5.18;;;11.90;99.90;;;;;;5069784;28;20044;-79
2022/03/27 11:20:25;;;;;;;23.48;5.32;;;12.10;99.90;;;;;;5046761;28;20055;-81
2022/03/27 11:22:52;;;;;;;25.55;5.13;;;12.30;99.90;;;;;;5057331;28;20048;-81
2022/03/27 11:25:33;;;;;;;25.52;4.60;;;12.50;99.90;;;;;;5055740;28;20072;-80
2022/03/27 11:28:02;;;;;;;17.85;4.88;;;13.00;99.90;;;;;;5062357;28;20090;-81
2022/03/27 11:30:28;;;;;;;19.48;4.90;;;12.80;99.90;;;;;;5068604;28;20111;-81
2022/03/27 11:33:18;;;;;;;20.90;5.22;;;12.90;99.90;;;;;;5060274;28;20048;-80
2022/03/27 11:36:02;;;;;;;16.65;4.00;;;13.10;99.90;;;;;;5070061;28;20111;-80
2022/03/27 11:38:29;;;;;;;16.90;4.15;;;13.20;99.90;;;;;;5068665;28;20051;-81
2022/03/27 11:40:55;;;;;;;22.13;4.95;;;13.30;99.90;;;;;;5070134;28;20032;-81
2022/03/27 11:43:34;;;;;;;21.30;4.90;;;13.40;99.90;;;;;;5068658;28;20040;-81
2022/03/27 11:46:02;;;;;;;29.58;10.98;;;13.50;99.90;;;;;;5064293;28;20037;-81
2022/03/27 11:48:28;;;;;;;17.05;4.93;;;13.60;99.90;;;;;;5052292;28;20048;-80
2022/03/27 11:50:55;;;;;;;12.80;4.20;;;13.70;99.90;;;;;;5070091;28;20040;-80
2022/03/27 11:53:31;;;;;;;18.42;4.28;;;13.70;98.90;;;;;;5074456;28;20109;-81
2022/03/27 11:56:07;;;;;;;20.42;3.88;;;13.60;98.20;;;;;;5060686;28;20036;-80
2022/03/27 11:58:34;;;;;;;18.23;4.15;;;13.80;98.40;;;;;;5068223;28;20076;-80
2022/03/27 12:01:08;;;;;;;18.90;4.68;;;13.90;99.10;;;;;;5068557;28;20127;-81
2022/03/27 12:03:35;;;;;;;19.05;4.13;;;14.10;97.40;;;;;;5068812;28;20036;-80
2022/03/27 12:06:09;;;;;;;15.35;4.18;;;14.10;97.40;;;;;;5066944;28;20048;-82
2022/03/27 12:08:40;;;;;;;19.67;4.28;;;14.30;97.30;;;;;;5069859;28;20116;-81
2022/03/27 12:11:08;;;;;;;16.42;3.80;;;14.40;96.60;;;;;;5067812;28;20043;-82
2022/03/27 12:13:43;;;;;;;13.85;3.45;;;14.60;96.40;;;;;;5067727;28;20097;-82
2022/03/27 12:16:17;;;;;;;13.50;3.33;;;14.70;95.70;;;;;;5067957;28;20048;-81
2022/03/27 12:18:44;;;;;;;18.38;3.72;;;14.90;94.80;;;;;;5068369;28;20139;-81
2022/03/27 12:21:13;;;;;;;18.70;4.47;;;15.00;94.50;;;;;;5068900;28;20060;-82
2022/03/27 12:23:50;;;;;;;15.35;3.67;;;15.10;94.50;;;;;;5068240;28;20040;-81
2022/03/27 12:32:21;;;;;;;18.33;3.08;;;15.50;94.20;;;;;;5059851;28;20075;-80
2022/03/27 12:34:54;;;;;;;12.80;4.45;;;15.70;93.90;;;;;;5055920;28;20453;-81
2022/03/27 12:37:22;;;;;;;33.83;15.43;;;16.00;92.80;;;;;;5068026;28;20048;-81
2022/03/27 12:39:47;;;;;;;15.15;4.00;;;15.80;92.50;;;;;;5068448;28;20083;-80
2022/03/27 12:42:48;;;;;;;18.27;4.03;;;16.00;92.60;;;;;;5068123;28;20468;-81
2022/03/27 12:45:21;;;;;;;17.90;3.63;;;16.10;92.40;;;;;;5061818;28;20052;-81
2022/03/27 12:47:49;;;;;;;13.43;3.25;;;16.20;92.20;;;;;;5063962;28;20202;-78
2022/03/27 12:50:33;;;;;;;14.73;2.85;;;16.30;91.70;;;;;;5052170;28;20040;-79
2022/03/27 12:53:12;;;;;;;16.92;3.63;;;16.40;91.50;;;;;;5063645;28;20101;-78
2022/03/27 12:55:51;;;;;;;15.23;3.25;;;16.40;90.90;;;;;;5051641;28;20064;-78
2022/03/27 12:58:41;;;;;;;13.27;3.30;;;17.00;90.30;;;;;;5069113;28;20048;-77
2022/03/27 13:01:19;;;;;;;15.05;3.67;;;16.50;89.90;;;;;;5052746;28;20055;-80
2022/03/27 13:04:07;;;;;;;17.20;3.28;;;16.50;88.30;;;;;;5070014;28;20047;-78
2022/03/27 13:06:42;;;;;;;11.95;3.10;;;16.60;88.90;;;;;;5062593;28;20119;-81
2022/03/27 13:09:08;;;;;;;10.50;2.92;;;16.70;87.60;;;;;;5059822;28;20392;-78